createdAt,value
2023-03-08T00:01:51.463Z,0.45
2023-03-08T00:04:21.237Z,0.30
2023-03-08T00:06:51.043Z,0.34
2023-03-08T00:09:20.624Z,0.22
2023-03-08T00:11:50.165Z,0.04
2023-03-08T00:14:25.370Z,0.17
2023-03-08T00:16:54.915Z,0.07
2023-03-08T00:19:24.505Z,0.04
2023-03-08T00:21:54.084Z,0.16
2023-03-08T00:24:23.676Z,0.05
2023-03-08T00:26:53.234Z,0.15
2023-03-08T00:29:25.561Z,0.17
2023-03-08T00:31:55.308Z,0.31
2023-03-08T00:34:25.253Z,0.38
2023-03-08T00:36:54.835Z,0.52
2023-03-08T00:39:24.416Z,0.49
2023-03-08T00:41:54.006Z,0.45
2023-03-08T00:44:27.007Z,0.43
2023-03-08T00:46:56.565Z,0.43
2023-03-08T00:49:26.203Z,0.54
2023-03-08T00:51:55.770Z,0.59
2023-03-08T00:54:25.402Z,0.56
2023-03-08T00:56:55.109Z,0.61
2023-03-08T00:59:27.273Z,0.70
2023-03-08T01:01:57.468Z,0.64
2023-03-08T01:04:27.360Z,0.68
2023-03-08T01:06:56.996Z,0.75
2023-03-08T01:09:26.660Z,0.56
2023-03-08T01:11:56.743Z,0.31
2023-03-08T01:14:30.063Z,0.46
2023-03-08T01:16:59.690Z,0.38
2023-03-08T01:19:29.285Z,0.55
2023-03-08T01:21:58.849Z,0.73
2023-03-08T01:24:28.423Z,0.55
2023-03-08T01:27:01.015Z,0.72
2023-03-08T01:29:33.165Z,0.39
2023-03-08T01:32:02.907Z,0.19
2023-03-08T01:34:32.509Z,0.04
2023-03-08T01:37:02.163Z,0.06
2023-03-08T01:39:31.710Z,0.13
2023-03-08T01:42:01.540Z,-0.01
2023-03-08T01:44:52.441Z,0.03
2023-03-08T01:47:24.303Z,-0.08
2023-03-08T01:50:26.175Z,-0.06
2023-03-08T01:52:58.272Z,-0.05
2023-03-08T01:55:28.030Z,0.03
2023-03-08T01:57:58.820Z,0.12
2023-03-08T02:00:31.094Z,0.05
2023-03-08T02:03:03.648Z,0.11
2023-03-08T02:05:33.706Z,0.12
2023-03-08T02:08:15.426Z,0.15
2023-03-08T02:10:47.099Z,0.19
2023-03-08T02:13:17.725Z,0.25
2023-03-08T02:15:51.366Z,0.22
2023-03-08T02:18:23.374Z,0.30
2023-03-08T02:20:52.956Z,0.16
2023-03-08T02:23:28.944Z,0.15
2023-03-08T02:26:01.898Z,0.10
2023-03-08T02:28:33.377Z,0.16
2023-03-08T02:31:03.653Z,0.15
2023-03-08T02:33:36.602Z,0.21
2023-03-08T02:36:08.207Z,0.29
2023-03-08T02:38:40.435Z,0.50
2023-03-08T02:41:11.364Z,0.48
2023-03-08T02:43:40.952Z,0.68
2023-03-08T02:46:13.367Z,0.60
2023-03-08T02:48:42.975Z,0.41
2023-03-08T02:51:12.651Z,0.55
2023-03-08T02:57:10.539Z,0.44
2023-03-08T02:59:41.426Z,0.47
2023-03-08T03:02:11.151Z,0.59
2023-03-08T03:04:40.788Z,0.41
2023-03-08T03:07:10.637Z,0.32
2023-03-08T03:09:41.210Z,0.47
2023-03-08T03:12:13.468Z,0.57
2023-03-08T03:14:44.990Z,0.67
2023-03-08T03:17:14.610Z,0.62
2023-03-08T04:05:56.194Z,0.98
2023-03-08T04:08:25.885Z,0.81
2023-03-08T04:10:55.608Z,0.76
2023-03-08T04:13:25.724Z,1.10
2023-03-08T04:15:55.818Z,1.11
2023-03-08T04:18:25.808Z,1.04
2023-03-08T04:20:58.062Z,1.06
2023-03-08T04:23:27.748Z,1.40
2023-03-08T04:25:57.322Z,1.34
2023-03-08T04:28:26.964Z,1.53
2023-03-08T04:30:57.201Z,1.37
2023-03-08T04:33:26.995Z,1.42
2023-03-08T04:35:59.444Z,1.42
2023-03-08T04:38:30.156Z,1.76
2023-03-08T04:41:05.646Z,1.65
2023-03-08T04:43:49.647Z,2.00
2023-03-08T04:46:22.877Z,1.88
2023-03-08T04:48:52.964Z,1.57
2023-03-08T04:51:27.307Z,1.65
2023-03-08T04:53:59.457Z,1.51
2023-03-08T04:56:29.482Z,1.61
2023-03-08T04:58:59.116Z,1.65
2023-03-08T05:01:30.014Z,0.93
2023-03-08T05:04:00.666Z,0.87
2023-03-08T05:06:39.762Z,0.86
2023-03-08T05:09:11.222Z,0.85
2023-03-08T05:11:43.589Z,0.94
2023-03-08T05:14:13.666Z,0.75
2023-03-08T05:16:43.399Z,0.81
2023-03-08T05:19:13.732Z,0.90
2023-03-08T05:21:53.041Z,0.56
2023-03-08T05:24:23.028Z,0.15
2023-03-08T05:26:52.935Z,0.23
2023-03-08T05:29:23.560Z,0.33
2023-03-08T05:31:53.604Z,0.34
2023-03-08T05:34:24.472Z,0.38
2023-03-08T05:36:56.690Z,0.47
2023-03-08T05:39:26.371Z,0.51
2023-03-08T05:42:02.531Z,0.21
2023-03-08T05:44:39.498Z,0.53
2023-03-08T05:47:10.576Z,0.76
2023-03-08T05:49:40.314Z,0.76
2023-03-08T05:52:13.433Z,0.50
2023-03-08T05:54:43.875Z,0.31
2023-03-08T05:57:18.172Z,0.92
2023-03-08T05:59:48.592Z,0.64
2023-03-08T06:02:21.196Z,0.68
2023-03-08T06:04:53.372Z,0.63
2023-03-08T06:07:28.196Z,0.60
2023-03-08T06:10:05.209Z,0.42
2023-03-08T06:12:34.853Z,0.74
2023-03-08T06:15:09.667Z,0.97
2023-03-08T06:17:40.613Z,1.21
2023-03-08T06:20:12.115Z,1.66
2023-03-08T06:22:47.666Z,-0.21
2023-03-08T06:25:18.796Z,0.09
2023-03-08T06:27:49.742Z,0.16
2023-03-08T06:30:38.157Z,-0.24
2023-03-08T06:33:08.469Z,0.60
2023-03-08T06:35:38.580Z,0.29
2023-03-08T06:38:11.780Z,0.14
2023-03-08T06:40:41.620Z,-0.39
2023-03-08T06:43:11.240Z,0.12
2023-03-08T06:45:41.081Z,0.55
2023-03-08T06:48:12.079Z,0.51
2023-03-08T06:50:42.701Z,0.33
2023-03-08T06:53:16.002Z,1.06
2023-03-08T06:55:56.458Z,0.61
2023-03-08T06:58:26.058Z,0.81
2023-03-08T07:00:59.797Z,1.07
2023-03-08T07:03:29.976Z,0.91
2023-03-08T07:06:01.605Z,1.00
2023-03-08T07:08:33.957Z,0.97
2023-03-08T07:11:03.536Z,0.87
2023-03-08T07:13:33.092Z,1.14
2023-03-08T07:16:02.716Z,0.91
2023-03-08T07:18:32.274Z,1.30
2023-03-08T07:21:01.816Z,0.81
2023-03-08T07:23:34.224Z,0.95
2023-03-08T07:26:07.264Z,0.75
2023-03-08T07:28:36.909Z,-0.11
2023-03-08T07:31:06.888Z,-0.22
2023-03-08T07:33:36.578Z,0.90
2023-03-08T07:36:06.810Z,0.92
2023-03-08T07:38:38.961Z,0.76
2023-03-08T07:41:08.798Z,1.09
2023-03-08T07:43:38.566Z,1.55
2023-03-08T07:46:15.870Z,1.67
2023-03-08T07:48:45.450Z,1.77
2023-03-08T07:51:15.223Z,2.23
2023-03-08T07:53:47.389Z,1.16
2023-03-08T07:56:17.060Z,1.33
2023-03-08T07:58:46.765Z,1.16
2023-03-08T08:01:17.099Z,2.06
2023-03-08T08:03:47.358Z,1.36
2023-03-08T08:06:17.243Z,1.54
2023-03-08T08:08:49.399Z,1.95
2023-03-08T08:11:20.231Z,1.63
2023-03-08T08:13:49.850Z,1.95
2023-03-08T08:16:20.279Z,2.33
2023-03-08T08:18:49.912Z,2.44
2023-03-08T08:21:19.516Z,2.12
2023-03-08T08:23:51.760Z,1.93
2023-03-08T08:26:22.764Z,1.82
2023-03-08T08:28:54.963Z,1.20
2023-03-08T08:31:26.855Z,1.17
2023-03-08T08:33:56.515Z,1.42
2023-03-08T08:36:26.861Z,1.73
2023-03-08T08:38:59.032Z,1.47
2023-03-08T08:41:29.788Z,1.49
2023-03-08T08:44:00.244Z,1.57
2023-03-08T08:46:31.142Z,2.08
2023-03-08T08:49:01.344Z,1.97
2023-03-08T08:51:31.156Z,2.87
2023-03-08T08:54:03.392Z,3.41
2023-03-08T08:56:33.092Z,3.37
2023-03-08T08:59:04.670Z,3.10
2023-03-08T09:01:37.081Z,1.81
2023-03-08T09:04:06.723Z,1.79
2023-03-08T09:06:36.437Z,2.10
2023-03-08T09:09:09.446Z,1.73
2023-03-08T09:11:53.442Z,1.18
2023-03-08T09:14:26.882Z,1.47
2023-03-08T09:16:56.569Z,1.10
2023-03-08T09:19:26.268Z,1.61
2023-03-08T09:21:56.001Z,1.79
2023-03-08T09:24:28.130Z,1.94
2023-03-08T09:26:57.691Z,1.54
2023-03-08T09:29:27.248Z,1.84
2023-03-08T09:31:58.690Z,1.20
2023-03-08T09:34:28.977Z,1.35
2023-03-08T09:36:58.564Z,1.62
2023-03-08T09:39:30.862Z,1.84
2023-03-08T09:42:02.398Z,1.46
2023-03-08T09:45:01.966Z,2.22
2023-03-08T09:47:40.047Z,2.37
2023-03-08T09:50:28.046Z,1.75
2023-03-08T09:53:01.971Z,2.25
2023-03-08T09:55:36.120Z,1.68
2023-03-08T09:58:14.201Z,2.10
2023-03-08T10:00:43.835Z,2.05
2023-03-08T10:03:35.462Z,2.42
2023-03-08T10:06:15.492Z,2.54
2023-03-08T10:08:52.361Z,2.34
2023-03-08T10:11:34.320Z,1.85
2023-03-08T10:14:13.613Z,2.04
2023-03-08T10:16:47.017Z,2.40
2023-03-08T10:19:20.303Z,1.89
2023-03-08T10:21:50.877Z,2.62
2023-03-08T10:24:27.185Z,2.05
2023-03-08T10:27:09.545Z,1.77
2023-03-08T10:29:39.133Z,2.28
2023-03-08T10:32:09.340Z,2.82
2023-03-08T10:34:39.062Z,2.57
2023-03-08T10:37:09.987Z,3.31
2023-03-08T10:39:40.351Z,3.11
2023-03-08T10:42:18.783Z,2.92
2023-03-08T10:44:57.207Z,3.41
2023-03-08T10:47:29.894Z,3.79
2023-03-08T10:50:08.432Z,3.30
2023-03-08T10:52:38.307Z,3.49
2023-03-08T10:55:13.934Z,3.32
2023-03-08T10:57:54.029Z,3.20
2023-03-08T11:00:43.929Z,3.96
2023-03-08T11:03:17.400Z,3.08
2023-03-08T11:05:59.110Z,2.72
2023-03-08T11:08:31.981Z,3.23
2023-03-08T11:11:10.748Z,3.49
2023-03-08T11:13:46.575Z,3.22
2023-03-08T11:16:31.137Z,4.30
2023-03-08T11:19:09.782Z,3.66
2023-03-08T11:21:50.706Z,3.27
2023-03-08T11:24:32.960Z,2.46
2023-03-08T11:27:19.622Z,2.36
2023-03-08T11:30:05.981Z,2.58
2023-03-08T11:32:50.352Z,2.60
2023-03-08T11:35:27.406Z,3.13
2023-03-08T11:38:02.487Z,3.39
2023-03-08T11:40:40.755Z,3.46
2023-03-08T11:43:26.310Z,3.49
2023-03-08T11:46:04.492Z,3.60
2023-03-08T11:49:03.807Z,2.51
2023-03-08T11:51:42.917Z,2.62
2023-03-08T11:54:20.148Z,2.84
2023-03-08T11:56:54.286Z,3.19
2023-03-08T11:59:32.511Z,2.80
2023-03-08T12:02:14.333Z,3.13
2023-03-08T12:04:48.699Z,2.10
2023-03-08T12:07:25.305Z,2.23
2023-03-08T12:10:02.172Z,2.37
2023-03-08T12:12:36.254Z,2.36
2023-03-08T12:15:16.995Z,3.08
2023-03-08T12:17:55.650Z,2.90
2023-03-08T12:20:25.689Z,2.19
2023-03-08T12:23:03.273Z,2.45
2023-03-08T12:25:35.812Z,2.59
2023-03-08T12:28:09.706Z,2.77
2023-03-08T12:30:50.432Z,2.10
2023-03-08T12:33:23.632Z,2.71
2023-03-08T12:35:55.814Z,2.42
2023-03-08T12:38:34.782Z,2.28
2023-03-08T12:41:07.199Z,2.00
2023-03-08T12:43:38.784Z,2.08
2023-03-08T12:46:10.775Z,2.75
2023-03-08T12:48:51.968Z,2.86
2023-03-08T12:51:26.975Z,2.85
2023-03-08T12:54:03.319Z,2.41
2023-03-08T12:56:35.855Z,2.69
2023-03-08T12:59:26.732Z,2.98
2023-03-08T13:02:04.405Z,2.76
2023-03-08T13:04:41.763Z,1.93
2023-03-08T13:07:24.977Z,2.05
2023-03-08T13:10:00.986Z,2.31
2023-03-08T13:12:42.839Z,2.48
2023-03-08T13:15:26.024Z,2.33
2023-03-08T13:18:08.519Z,2.34
2023-03-08T13:21:00.915Z,2.13
2023-03-08T13:23:36.347Z,1.70
2023-03-08T13:26:19.141Z,1.57
2023-03-08T13:28:49.510Z,1.66
2023-03-08T13:31:22.245Z,1.90
2023-03-08T13:33:54.912Z,1.57
2023-03-08T13:36:29.017Z,1.59
2023-03-08T13:39:01.147Z,1.83
2023-03-08T13:41:38.481Z,1.47
2023-03-08T13:44:10.409Z,1.55
2023-03-08T13:46:42.995Z,1.94
2023-03-08T13:49:19.022Z,1.75
2023-03-08T13:51:54.952Z,1.92
2023-03-08T13:54:29.931Z,1.55
2023-03-08T13:57:00.494Z,1.71
2023-03-08T13:59:30.226Z,1.83
2023-03-08T14:02:00.360Z,2.20
2023-03-08T14:04:31.756Z,2.18
2023-03-08T14:07:07.285Z,1.80
2023-03-08T14:09:36.922Z,2.16
2023-03-08T14:12:09.970Z,1.99
2023-03-08T14:14:43.342Z,2.00
2023-03-08T14:17:22.418Z,2.21
2023-03-08T14:19:56.902Z,2.17
2023-03-08T14:22:39.622Z,2.02
2023-03-08T14:25:24.752Z,2.04
2023-03-08T14:27:55.061Z,2.08
2023-03-08T14:30:26.834Z,2.22
2023-03-08T14:33:07.168Z,1.93
2023-03-08T14:35:39.803Z,1.61
2023-03-08T14:38:25.949Z,1.49
2023-03-08T14:40:55.662Z,1.46
2023-03-08T14:43:27.565Z,1.91
2023-03-08T14:45:59.048Z,2.00
2023-03-08T14:48:32.786Z,1.79
2023-03-08T14:51:04.579Z,1.82
2023-03-08T14:53:38.904Z,1.99
2023-03-08T14:56:10.014Z,2.01
2023-03-08T14:58:42.681Z,1.99
2023-03-08T15:01:12.532Z,2.04
2023-03-08T15:03:42.142Z,2.03
2023-03-08T15:06:18.260Z,2.17
2023-03-08T15:08:51.526Z,2.13
2023-03-08T15:11:22.002Z,2.01
2023-03-08T15:13:52.223Z,1.89
2023-03-08T15:16:21.932Z,1.83
2023-03-08T15:18:51.580Z,2.01
2023-03-08T15:21:25.120Z,2.06
2023-03-08T15:23:57.703Z,2.03
2023-03-08T15:26:31.538Z,1.57
2023-03-08T15:29:03.424Z,1.98
2023-03-08T15:31:33.592Z,1.78
2023-03-08T15:34:03.855Z,1.54
2023-03-08T15:36:35.777Z,1.22
2023-03-08T15:39:08.267Z,1.09
2023-03-08T15:41:38.154Z,1.43
2023-03-08T15:44:07.725Z,1.47
2023-03-08T15:46:38.020Z,1.94
2023-03-08T15:49:08.578Z,1.72
2023-03-08T15:51:39.604Z,1.53
2023-03-08T15:54:13.934Z,1.66
2023-03-08T15:56:43.668Z,1.47
2023-03-08T15:59:14.292Z,1.54
2023-03-08T16:01:43.912Z,1.48
2023-03-08T16:04:13.804Z,1.39
2023-03-08T16:06:44.259Z,1.52
2023-03-08T16:09:16.390Z,1.32
2023-03-08T16:11:48.127Z,1.30
2023-03-08T16:14:18.791Z,1.22
2023-03-08T16:16:48.569Z,1.37
2023-03-08T16:19:18.258Z,1.29
2023-03-08T16:21:48.128Z,1.50
2023-03-08T16:24:20.307Z,1.41
2023-03-08T16:26:50.111Z,1.58
2023-03-08T16:29:19.685Z,1.39
2023-03-08T16:31:49.390Z,1.24
2023-03-08T16:34:19.798Z,1.16
2023-03-08T16:36:49.336Z,1.08
2023-03-08T16:39:21.608Z,1.17
2023-03-08T16:41:51.689Z,1.22
2023-03-08T16:44:23.083Z,1.36
2023-03-08T16:46:53.162Z,1.30
2023-03-08T16:49:28.410Z,1.13
2023-03-08T16:51:58.783Z,1.29
2023-03-08T16:54:31.103Z,1.03
2023-03-08T16:57:13.044Z,1.22
2023-03-08T16:59:47.702Z,1.42
2023-03-08T17:02:18.969Z,1.20
2023-03-08T17:04:49.627Z,1.29
2023-03-08T17:07:19.675Z,1.30
2023-03-08T17:09:52.189Z,1.49
2023-03-08T17:12:21.784Z,1.27
2023-03-08T17:14:51.407Z,1.10
2023-03-08T17:17:21.105Z,1.30
2023-03-08T17:19:54.124Z,0.80
2023-03-08T17:22:23.806Z,0.73
2023-03-08T17:24:56.126Z,0.51
2023-03-08T17:27:25.703Z,0.51
2023-03-08T17:29:55.371Z,0.43
2023-03-08T17:32:25.033Z,0.46
2023-03-08T17:34:54.749Z,0.49
2023-03-08T17:37:24.414Z,0.43
2023-03-08T17:39:56.774Z,0.33
2023-03-08T17:42:26.528Z,0.29
2023-03-08T17:44:56.161Z,0.42
2023-03-08T17:47:25.836Z,0.36
2023-03-08T17:49:55.418Z,0.17
2023-03-08T17:52:25.040Z,0.39
2023-03-08T17:54:57.189Z,0.38
2023-03-08T17:57:27.339Z,0.45
2023-03-08T17:59:57.278Z,0.55
2023-03-08T18:02:27.073Z,0.55
2023-03-08T18:04:56.724Z,0.76
2023-03-08T18:07:27.831Z,0.91
2023-03-08T18:10:01.890Z,0.84
2023-03-08T18:12:32.159Z,0.76
2023-03-08T18:15:02.015Z,0.57
2023-03-08T18:17:34.196Z,0.96
2023-03-08T18:20:05.601Z,0.69
2023-03-08T18:22:35.391Z,1.12
2023-03-08T18:25:08.362Z,0.95
2023-03-08T18:27:39.578Z,0.74
2023-03-08T18:30:11.930Z,0.52
2023-03-08T18:32:42.158Z,0.41
2023-03-08T18:35:13.445Z,0.30
2023-03-08T18:37:43.106Z,0.18
2023-03-08T18:40:15.970Z,0.25
2023-03-08T18:42:46.047Z,0.41
2023-03-08T18:45:17.156Z,0.52
2023-03-08T18:47:46.967Z,0.45
2023-03-08T18:50:16.885Z,0.12
2023-03-08T18:52:46.487Z,0.12
2023-03-08T18:55:18.728Z,0.19
2023-03-08T18:57:48.306Z,0.13
2023-03-08T19:00:19.483Z,0.35
2023-03-08T19:02:49.040Z,0.33
2023-03-08T19:05:19.077Z,0.05
2023-03-08T19:07:48.638Z,0.28
2023-03-08T19:10:21.082Z,0.21
2023-03-08T19:12:50.671Z,0.65
2023-03-08T19:15:20.590Z,0.71
2023-03-08T19:17:50.172Z,0.33
2023-03-08T19:20:20.541Z,0.76
2023-03-08T19:22:50.125Z,0.52
2023-03-08T19:25:22.307Z,0.37
2023-03-08T19:27:51.882Z,0.35
2023-03-08T19:30:23.302Z,0.47
2023-03-08T19:32:52.862Z,0.65
2023-03-08T19:35:23.113Z,0.51
2023-03-08T19:37:53.519Z,0.47
2023-03-08T19:40:25.752Z,0.16
2023-03-08T19:42:55.506Z,0.10
2023-03-08T19:45:25.394Z,0.28
2023-03-08T19:47:55.864Z,0.16
2023-03-08T19:50:25.773Z,0.16
2023-03-08T19:52:55.609Z,0.10
2023-03-08T19:55:28.278Z,-0.07
2023-03-08T19:57:57.896Z,0.04
2023-03-08T20:00:28.857Z,-0.03
2023-03-08T20:02:59.547Z,0.15
2023-03-08T20:05:29.463Z,0.07
2023-03-08T20:07:59.311Z,0.30
2023-03-08T20:10:31.760Z,0.08
2023-03-08T20:13:01.333Z,0.06
2023-03-08T20:15:31.101Z,0.15
2023-03-08T20:18:01.104Z,0.42
2023-03-08T20:20:30.721Z,0.36
2023-03-08T20:23:00.741Z,0.37
2023-03-08T20:25:34.792Z,0.09
2023-03-08T20:28:04.914Z,0.04
2023-03-08T20:30:34.478Z,0.02
2023-03-08T20:33:04.594Z,0.33
2023-03-08T20:35:34.436Z,0.19
2023-03-08T20:38:04.111Z,0.47
2023-03-08T20:40:39.240Z,0.15
2023-03-08T20:43:11.027Z,0.13
2023-03-08T20:45:42.326Z,0.05
2023-03-08T20:48:12.057Z,0.04
2023-03-08T20:50:41.818Z,0.10
2023-03-08T20:53:11.606Z,0.17
2023-03-08T20:55:44.036Z,0.21
2023-03-08T20:58:13.809Z,0.11
2023-03-08T21:00:43.661Z,0.08
2023-03-08T21:03:13.447Z,0.06
2023-03-08T21:05:43.056Z,-0.10
2023-03-08T21:08:12.767Z,0.03
2023-03-08T21:10:44.906Z,-0.04
2023-03-08T21:13:14.662Z,0.03
2023-03-08T21:15:44.355Z,-0.04
2023-03-08T21:18:13.972Z,-0.07
2023-03-08T21:20:44.949Z,-0.03
2023-03-08T21:23:16.523Z,-0.10
2023-03-08T21:25:48.670Z,-0.07
2023-03-08T21:28:18.530Z,-0.09
2023-03-08T21:30:48.850Z,-0.01
2023-03-08T21:33:18.821Z,-0.03
2023-03-08T21:35:48.401Z,-0.04
2023-03-08T21:38:17.969Z,0.19
2023-03-08T21:40:50.107Z,0.14
2023-03-08T21:43:19.675Z,0.08
2023-03-08T21:45:49.269Z,-0.02
2023-03-08T21:48:18.852Z,0.00
2023-03-08T21:50:48.409Z,0.08
2023-03-08T21:53:17.982Z,0.20
2023-03-08T21:55:50.130Z,-0.02
2023-03-08T21:58:19.724Z,0.04
2023-03-08T22:00:49.332Z,-0.15
2023-03-08T22:03:19.258Z,-0.13
2023-03-08T22:05:48.908Z,0.02
2023-03-08T22:08:18.453Z,-0.04
2023-03-08T22:10:50.721Z,-0.15
2023-03-08T22:13:20.284Z,-0.10
2023-03-08T22:15:52.502Z,-0.07
2023-03-08T22:18:25.861Z,-0.05
2023-03-08T22:20:56.254Z,-0.20
2023-03-08T22:23:26.513Z,-0.24
2023-03-08T22:25:58.647Z,-0.20
2023-03-08T22:28:28.265Z,-0.01
2023-03-08T22:30:57.829Z,-0.20
2023-03-08T22:33:27.356Z,-0.21
2023-03-08T22:35:56.980Z,-0.22
2023-03-08T22:38:26.548Z,-0.15
2023-03-08T22:40:58.690Z,-0.06
2023-03-08T22:43:28.602Z,-0.15
2023-03-08T22:45:58.220Z,0.14
2023-03-08T22:48:27.843Z,0.06
2023-03-08T22:51:10.297Z,0.19
2023-03-08T22:53:40.581Z,0.37
2023-03-08T22:56:21.659Z,0.13
2023-03-08T22:58:51.650Z,0.12
2023-03-08T23:01:22.977Z,0.09
2023-03-08T23:03:53.692Z,0.15
2023-03-08T23:06:23.325Z,0.42
2023-03-08T23:08:53.280Z,0.62
2023-03-08T23:11:25.822Z,0.37
2023-03-08T23:13:55.760Z,0.46
2023-03-08T23:16:25.402Z,0.40
2023-03-08T23:18:56.516Z,0.44
2023-03-08T23:21:29.370Z,0.55
2023-03-08T23:23:59.522Z,0.34
2023-03-08T23:26:32.805Z,0.21
2023-03-08T23:29:04.916Z,0.36
2023-03-08T23:31:36.011Z,0.48
2023-03-08T23:34:07.492Z,0.60
2023-03-08T23:36:37.100Z,0.76
2023-03-08T23:39:06.773Z,0.40
2023-03-08T23:41:38.936Z,0.55
2023-03-08T23:44:08.530Z,0.20
2023-03-08T23:46:38.345Z,0.25
2023-03-08T23:49:07.997Z,0.32
2023-03-08T23:51:37.580Z,0.18
2023-03-08T23:54:07.327Z,0.25
2023-03-08T23:56:41.397Z,0.57
2023-03-08T23:59:17.545Z,0.18
